Time;durP1;ratioP1;P1;durP2;ratioP2;P2;SDS_P1;SDS_P2;PMS_P1;PMS_P2;Temp;Humidity;BMP_temperature;BMP_pressure;BME280_temperature;BME280_humidity;BME280_pressure;Samples;Min_cycle;Max_cycle;Signal;HPM_P1;HPM_P2
2023/12/10 00:00:01;;;;;;;12.60;11.20;;;;;;;7.61;53.64;101761.89;106595;1273;24207;-66
2023/12/10 00:02:30;;;;;;;13.00;10.50;;;;;;;7.61;53.48;101760.50;105926;1264;1002632;-66
2023/12/10 00:04:59;;;;;;;12.30;10.70;;;;;;;7.60;53.60;101767.23;106793;1264;22545;-66
2023/12/10 00:07:26;;;;;;;11.70;10.00;;;;;;;7.61;53.57;101762.58;106675;1264;22533;-66
2023/12/10 00:09:54;;;;;;;11.10;9.20;;;;;;;7.64;53.53;101763.80;106697;1259;22548;-66
2023/12/10 00:12:22;;;;;;;11.50;10.00;;;;;;;7.65;53.46;101763.62;106002;1259;1003379;-66
2023/12/10 00:14:54;;;;;;;12.10;10.10;;;;;;;7.65;53.43;101763.11;106668;1260;24260;-66
2023/12/10 00:17:22;;;;;;;12.70;9.80;;;;;;;7.65;53.39;101767.77;105771;1264;1003040;-66
2023/12/10 00:19:49;;;;;;;11.10;9.70;;;;;;;7.65;53.36;101772.44;106638;1263;22543;-66
2023/12/10 00:22:17;;;;;;;11.20;9.90;;;;;;;7.64;53.32;101774.84;106698;1257;25245;-66
2023/12/10 00:24:45;;;;;;;10.20;9.10;;;;;;;7.61;53.23;101776.73;106558;1264;24192;-66
2023/12/10 00:27:13;;;;;;;12.10;9.60;;;;;;;7.60;53.43;101779.15;106636;1272;24299;-66
2023/12/10 00:29:41;;;;;;;11.80;9.20;;;;;;;7.61;53.37;101774.15;105863;1264;1003167;-66
2023/12/10 00:32:09;;;;;;;11.50;9.40;;;;;;;7.65;53.45;101780.04;105960;1264;1003346;-67
2023/12/10 00:34:37;;;;;;;10.70;9.40;;;;;;;7.68;53.37;101781.26;106550;1264;25364;-66
2023/12/10 00:37:05;;;;;;;11.70;10.00;;;;;;;7.69;53.27;101780.58;106605;1263;22542;-67
2023/12/10 00:39:32;;;;;;;11.40;10.20;;;;;;;7.70;53.28;101777.65;106599;1263;22624;-65
2023/12/10 00:42:00;;;;;;;12.20;10.00;;;;;;;7.71;53.34;101782.84;106382;1264;22538;-66
2023/12/10 00:44:28;;;;;;;10.50;9.10;;;;;;;7.74;53.40;101786.14;105851;1264;1003777;-66
2023/12/10 00:46:56;;;;;;;11.10;9.40;;;;;;;7.77;53.35;101781.67;106740;1263;22543;-66
2023/12/10 00:49:24;;;;;;;10.50;9.40;;;;;;;7.78;53.17;101784.27;106672;1262;25314;-66
2023/12/10 00:51:52;;;;;;;10.70;9.50;;;;;;;7.79;53.14;101785.48;106598;1263;22535;-66
2023/12/10 00:54:20;;;;;;;11.00;8.60;;;;;;;7.79;53.15;101785.64;106653;1264;25357;-66
2023/12/10 00:56:48;;;;;;;11.70;9.70;;;;;;;7.79;53.18;101789.09;105879;1260;1016198;-67
2023/12/10 00:59:16;;;;;;;11.40;9.10;;;;;;;7.80;53.14;101785.48;106647;1260;24232;-66
2023/12/10 01:01:44;;;;;;;10.60;9.50;;;;;;;7.81;53.17;101785.66;106656;1264;22547;-67
2023/12/10 01:04:12;;;;;;;10.00;8.80;;;;;;;7.81;53.19;101783.23;106350;1264;22526;-67
2023/12/10 01:06:40;;;;;;;10.00;8.90;;;;;;;7.82;53.10;101784.80;105693;1260;1003122;-66
2023/12/10 01:09:08;;;;;;;10.70;8.60;;;;;;;7.84;53.01;101786.53;106794;1259;22585;-66
2023/12/10 01:11:36;;;;;;;12.00;9.90;;;;;;;7.84;52.99;101787.23;106633;1259;25373;-66
2023/12/10 01:14:04;;;;;;;13.20;9.30;;;;;;;7.84;53.04;101784.83;106738;1273;22539;-66
2023/12/10 01:16:32;;;;;;;11.60;8.70;;;;;;;7.84;52.84;101782.75;106603;1260;22534;-65
2023/12/10 01:19:00;;;;;;;10.50;8.60;;;;;;;7.83;52.98;101781.70;105727;1264;1002776;-65
2023/12/10 01:21:28;;;;;;;10.40;9.10;;;;;;;7.82;52.98;101785.16;106747;1273;22551;-66
2023/12/10 01:23:56;;;;;;;11.40;8.80;;;;;;;7.83;53.01;101785.33;106650;1259;24262;-66
2023/12/10 01:26:24;;;;;;;11.40;9.00;;;;;;;7.84;53.11;101782.23;105894;1273;1003638;-67
2023/12/10 01:28:52;;;;;;;11.10;9.60;;;;;;;7.83;52.80;101778.41;106054;1256;1003470;-66
2023/12/10 01:31:20;;;;;;;10.80;9.30;;;;;;;7.80;52.87;101779.63;105752;1264;1002903;-66
2023/12/10 01:33:48;;;;;;;10.40;9.20;;;;;;;7.80;52.95;101776.67;105918;1257;1003646;-66
2023/12/10 01:36:22;;;;;;;10.60;9.50;;;;;;;7.79;52.93;101774.25;106741;1260;25297;-66
2023/12/10 01:38:50;;;;;;;9.80;8.50;;;;;;;7.77;53.07;101770.77;106682;1257;25369;-66
2023/12/10 01:41:18;;;;;;;11.00;9.20;;;;;;;7.78;53.06;101770.45;106708;1262;24368;-66
2023/12/10 01:43:46;;;;;;;11.10;9.60;;;;;;;7.76;53.18;101765.09;106031;1263;1016076;-66
2023/12/10 01:46:14;;;;;;;11.80;9.50;;;;;;;7.76;53.11;101760.07;106698;1262;22537;-67
2023/12/10 01:48:43;;;;;;;10.40;8.80;;;;;;;7.75;53.08;101764.38;106373;1266;22536;-66
2023/12/10 01:51:11;;;;;;;12.30;9.70;;;;;;;7.72;52.98;101761.77;106705;1258;22558;-67
2023/12/10 01:53:39;;;;;;;11.20;9.30;;;;;;;7.71;53.27;101764.02;106667;1264;23864;-66
2023/12/10 01:56:08;;;;;;;10.40;9.30;;;;;;;7.71;53.29;101761.42;106635;1273;22534;-66
2023/12/10 01:58:36;;;;;;;12.20;10.00;;;;;;;7.73;53.31;101759.19;106667;1262;22546;-66
2023/12/10 02:01:05;;;;;;;11.30;9.20;;;;;;;7.75;53.30;101761.97;106693;1263;24221;-66
2023/12/10 02:03:33;;;;;;;10.20;9.00;;;;;;;7.78;53.42;101766.64;106667;1259;25341;-66
2023/12/10 02:06:02;;;;;;;10.70;9.40;;;;;;;7.79;53.15;101770.11;106619;1264;22556;-66
2023/12/10 02:08:30;;;;;;;10.10;8.80;;;;;;;7.80;53.17;101767.01;106636;1258;22533;-66
2023/12/10 02:10:58;;;;;;;9.40;8.40;;;;;;;7.80;53.18;101766.48;106422;1263;25310;-66
2023/12/10 02:13:26;;;;;;;10.50;9.30;;;;;;;7.85;53.19;101764.61;106630;1258;23274;-66
2023/12/10 02:15:54;;;;;;;9.80;8.80;;;;;;;7.88;53.24;101761.69;106553;1259;22582;-66
2023/12/10 02:18:22;;;;;;;11.70;9.80;;;;;;;7.91;53.05;101755.31;106378;1273;26510;-66
2023/12/10 02:20:50;;;;;;;9.80;8.40;;;;;;;7.95;53.07;101755.16;105574;1266;1002942;-67
2023/12/10 02:23:47;;;;;;;8.80;7.90;;;;;;;7.98;52.98;101753.63;106672;1257;24243;-66
2023/12/10 02:26:15;;;;;;;10.80;9.60;;;;;;;7.99;53.07;101750.86;106705;1258;22532;-66
2023/12/10 02:28:43;;;;;;;9.90;8.90;;;;;;;8.02;52.95;101748.63;106855;1262;22533;-66
2023/12/10 02:31:11;;;;;;;10.30;9.20;;;;;;;8.02;52.95;101744.48;106691;1264;22533;-66
2023/12/10 02:33:39;;;;;;;9.30;8.30;;;;;;;8.04;52.86;101738.96;106720;1257;22543;-66
2023/12/10 02:36:08;;;;;;;9.50;8.10;;;;;;;8.07;52.72;101738.63;106657;1263;22548;-66
2023/12/10 02:38:36;;;;;;;9.70;8.50;;;;;;;8.07;52.49;101742.61;106398;1264;25418;-66
2023/12/10 02:41:04;;;;;;;12.40;9.30;;;;;;;8.05;52.46;101745.02;106390;1263;22536;-66
2023/12/10 02:43:32;;;;;;;9.30;8.30;;;;;;;8.05;52.49;101746.21;106558;1259;22536;-66
2023/12/10 02:45:59;;;;;;;9.60;8.30;;;;;;;8.05;52.60;101746.23;106782;1257;22533;-66
2023/12/10 02:48:27;;;;;;;9.90;8.90;;;;;;;8.06;52.37;101750.02;106418;1262;25306;-67
2023/12/10 02:50:55;;;;;;;9.30;8.30;;;;;;;8.06;52.61;101748.30;106605;1264;25297;-66
2023/12/10 02:53:23;;;;;;;9.80;8.80;;;;;;;8.09;52.46;101750.73;106812;1258;25491;-66
2023/12/10 02:55:52;;;;;;;11.30;9.50;;;;;;;8.11;52.41;101752.46;106697;1263;25370;-67
2023/12/10 02:58:19;;;;;;;11.20;9.40;;;;;;;8.11;52.28;101752.48;106693;1260;22541;-67
2023/12/10 03:00:47;;;;;;;12.10;9.70;;;;;;;8.12;52.40;101751.27;106639;1259;25346;-66
2023/12/10 03:03:16;;;;;;;10.60;8.90;;;;;;;8.11;52.26;101747.64;106724;1264;24218;-66
2023/12/10 03:05:44;;;;;;;10.90;9.40;;;;;;;8.09;52.13;101750.03;105696;1264;1003473;-66
2023/12/10 03:08:11;;;;;;;11.20;8.70;;;;;;;8.08;52.19;101755.58;106118;1254;1003138;-66
2023/12/10 03:10:39;;;;;;;12.50;8.50;;;;;;;8.08;52.36;101757.81;105987;1260;1003373;-66
2023/12/10 03:13:07;;;;;;;9.50;8.50;;;;;;;8.07;52.27;101759.72;106038;1256;1002935;-66
2023/12/10 03:15:35;;;;;;;10.40;8.40;;;;;;;8.06;52.21;101759.88;106880;1256;22550;-66
2023/12/10 03:18:03;;;;;;;10.50;8.50;;;;;;;8.05;52.25;101760.57;106934;1269;22659;-65
2023/12/10 03:20:31;;;;;;;9.40;7.70;;;;;;;8.05;52.28;101759.70;106929;1258;22542;-66
2023/12/10 03:23:00;;;;;;;9.50;8.30;;;;;;;8.04;52.12;101766.61;106935;1257;22525;-66
2023/12/10 03:25:27;;;;;;;9.80;8.50;;;;;;;8.04;52.10;101770.41;106119;1256;1002862;-65
2023/12/10 03:27:55;;;;;;;8.80;7.90;;;;;;;8.03;52.15;101774.73;106867;1256;22546;-65
2023/12/10 03:30:23;;;;;;;10.30;9.00;;;;;;;8.03;52.24;101777.84;106960;1257;22530;-66
2023/12/10 03:32:51;;;;;;;12.00;9.30;;;;;;;8.04;52.20;101784.75;106975;1257;22530;-66
2023/12/10 03:35:19;;;;;;;10.90;9.70;;;;;;;8.05;52.25;101783.04;106009;1257;1003655;-67
2023/12/10 03:37:47;;;;;;;10.90;9.70;;;;;;;8.05;52.20;101787.02;106780;1256;22525;-66
2023/12/10 03:40:15;;;;;;;12.00;9.70;;;;;;;8.05;52.26;101788.20;106861;1256;22534;-66
2023/12/10 03:42:43;;;;;;;9.30;8.20;;;;;;;8.01;52.13;101788.88;106825;1258;22550;-67
2023/12/10 03:45:11;;;;;;;9.50;8.40;;;;;;;7.99;52.26;101790.59;106111;1270;1003037;-65
2023/12/10 03:47:42;;;;;;;10.50;8.80;;;;;;;7.99;52.33;101791.48;105986;1262;1003482;-66
2023/12/10 03:50:10;;;;;;;9.70;8.50;;;;;;;8.00;52.36;101786.80;107009;1253;22703;-66
2023/12/10 03:52:38;;;;;;;10.90;9.40;;;;;;;8.00;52.28;101789.58;106937;1257;22557;-65
2023/12/10 03:55:07;;;;;;;11.60;10.00;;;;;;;7.98;52.35;101784.56;106895;1253;24906;-65
2023/12/10 03:57:35;;;;;;;10.40;8.70;;;;;;;7.97;52.53;101784.39;106140;1257;1003390;-66
2023/12/10 04:00:06;;;;;;;9.40;8.50;;;;;;;7.98;52.54;101775.91;106906;1257;25363;-66
2023/12/10 04:02:41;;;;;;;9.90;8.70;;;;;;;7.97;52.18;101776.94;106799;1260;22516;-67
2023/12/10 04:05:11;;;;;;;9.00;7.50;;;;;;;7.92;52.25;101781.58;106859;1256;23894;-65
2023/12/10 04:07:40;;;;;;;;;;;;;;;7.87;52.26;101786.55;106867;1259;25255;-66
2023/12/10 04:10:08;;;;;;;9.70;8.10;;;;;;;7.84;52.57;101784.30;106658;1275;22526;-66
2023/12/10 04:12:37;;;;;;;10.70;9.50;;;;;;;7.83;52.58;101788.95;106916;1256;22545;-65
2023/12/10 04:15:06;;;;;;;10.70;9.30;;;;;;;7.86;52.80;101795.19;107051;1253;25359;-65
2023/12/10 04:17:34;;;;;;;12.00;10.50;;;;;;;7.91;52.73;101800.74;106911;1257;22533;-66
2023/12/10 04:20:03;;;;;;;9.90;8.90;;;;;;;7.95;53.06;101804.76;106100;1257;1003354;-66
2023/12/10 04:22:31;;;;;;;10.50;9.20;;;;;;;8.00;52.75;101803.92;106014;1259;1003693;-66
2023/12/10 04:24:59;;;;;;;12.10;10.80;;;;;;;8.05;52.74;101799.62;106045;1253;1003167;-66
2023/12/10 04:27:27;;;;;;;10.50;9.00;;;;;;;8.08;52.67;101804.65;106929;1256;22654;-65
2023/12/10 04:29:54;;;;;;;13.50;11.80;;;;;;;8.08;52.59;101803.80;106855;1259;24219;-65
2023/12/10 04:32:22;;;;;;;15.00;12.20;;;;;;;8.07;52.66;101808.95;106905;1269;22541;-66
2023/12/10 04:34:50;;;;;;;15.80;11.80;;;;;;;8.11;52.73;101811.75;106736;1257;22543;-66
2023/12/10 04:37:18;;;;;;;17.10;13.70;;;;;;;8.14;52.48;101810.02;106718;1260;25267;-66
2023/12/10 04:39:46;;;;;;;15.30;13.10;;;;;;;8.14;52.44;101814.35;106153;1259;1003557;-66
2023/12/10 04:42:14;;;;;;;14.30;12.80;;;;;;;8.13;52.21;101815.02;106753;1256;22538;-66
2023/12/10 04:44:42;;;;;;;14.70;13.10;;;;;;;8.08;52.02;101816.21;106842;1259;22534;-66
2023/12/10 04:47:10;;;;;;;14.50;13.00;;;;;;;8.06;52.42;101817.42;106903;1257;22541;-66
2023/12/10 04:49:37;;;;;;;15.30;12.20;;;;;;;8.08;52.49;101817.77;106798;1256;22551;-66
2023/12/10 04:52:06;;;;;;;12.90;11.60;;;;;;;8.12;52.55;101817.27;106846;1254;22552;-66
2023/12/10 04:54:34;;;;;;;13.30;11.90;;;;;;;8.13;52.26;101814.69;106841;1258;23881;-65
2023/12/10 04:57:02;;;;;;;15.10;11.90;;;;;;;8.14;52.48;101820.92;106763;1261;22628;-66
2023/12/10 04:59:29;;;;;;;9.70;8.80;;;;;;;8.19;52.45;101819.91;107051;1259;22522;-66
2023/12/10 05:02:16;;;;;;;12.90;10.40;;;;;;;8.21;52.07;101825.45;106923;1269;25442;-66
2023/12/10 05:04:44;;;;;;;11.00;9.80;;;;;;;8.19;52.05;101831.48;106880;1269;22523;-67
2023/12/10 05:07:12;;;;;;;11.00;9.60;;;;;;;8.15;52.01;101834.23;106081;1257;1002950;-66
2023/12/10 05:09:40;;;;;;;12.80;9.90;;;;;;;8.14;52.11;101836.46;106190;1269;1003760;-66
2023/12/10 05:12:08;;;;;;;11.80;10.50;;;;;;;8.12;52.08;101839.23;106832;1255;22544;-66
2023/12/10 05:14:36;;;;;;;14.60;11.80;;;;;;;8.12;52.20;101844.59;106188;1256;1003525;-65
2023/12/10 05:17:04;;;;;;;13.30;11.70;;;;;;;8.16;52.20;101841.33;106695;1262;22532;-66
2023/12/10 05:19:32;;;;;;;11.70;10.40;;;;;;;8.20;52.10;101844.46;106902;1254;25278;-66
2023/12/10 05:22:00;;;;;;;15.70;12.40;;;;;;;8.22;52.11;101849.31;106822;1260;22526;-66
2023/12/10 05:24:28;;;;;;;13.40;11.20;;;;;;;8.22;52.12;101848.10;106124;1269;1003768;-65
2023/12/10 05:26:56;;;;;;;11.60;10.00;;;;;;;8.24;52.04;101850.36;106871;1259;25372;-66
2023/12/10 05:29:24;;;;;;;10.80;9.60;;;;;;;8.25;52.02;101850.03;106934;1255;25290;-66
2023/12/10 05:31:51;;;;;;;11.80;9.70;;;;;;;8.27;52.14;101850.58;106942;1259;22551;-67
2023/12/10 05:34:19;;;;;;;10.10;9.00;;;;;;;8.29;51.99;101851.80;106670;1259;22542;-66
2023/12/10 05:36:47;;;;;;;8.80;7.70;;;;;;;8.28;51.93;101850.92;106225;1259;1005473;-66
2023/12/10 05:39:15;;;;;;;9.30;8.00;;;;;;;8.23;51.72;101848.96;106038;1256;1003429;-66
2023/12/10 05:41:43;;;;;;;8.50;7.30;;;;;;;8.19;51.79;101846.35;106811;1260;24288;-65
2023/12/10 05:44:11;;;;;;;10.40;8.10;;;;;;;8.17;51.83;101845.99;106896;1257;24995;-66
2023/12/10 05:46:38;;;;;;;11.00;9.10;;;;;;;8.19;51.99;101847.74;106855;1254;22527;-65
2023/12/10 05:49:06;;;;;;;8.60;7.70;;;;;;;8.22;52.11;101845.85;106838;1259;22529;-66
2023/12/10 05:51:36;;;;;;;11.40;9.10;;;;;;;8.26;52.00;101844.68;106732;1267;22543;-66
2023/12/10 05:54:04;;;;;;;10.30;8.80;;;;;;;8.29;52.07;101845.05;106822;1257;24357;-67
2023/12/10 05:56:32;;;;;;;11.80;10.10;;;;;;;8.33;52.02;101845.41;105935;1266;1003307;-66
2023/12/10 05:59:01;;;;;;;12.20;9.60;;;;;;;8.33;51.64;101847.31;107034;1256;22563;-66
2023/12/10 06:01:29;;;;;;;12.70;10.30;;;;;;;8.33;51.94;101848.53;106809;1259;22534;-66
2023/12/10 06:03:57;;;;;;;10.90;9.20;;;;;;;8.34;51.78;101845.60;106880;1259;22528;-66
2023/12/10 06:06:25;;;;;;;13.50;10.20;;;;;;;8.35;51.69;101845.60;106922;1256;22524;-65
2023/12/10 06:08:53;;;;;;;13.30;9.80;;;;;;;8.34;51.77;101847.67;106484;1262;22533;-66
2023/12/10 06:11:21;;;;;;;12.20;9.20;;;;;;;8.35;51.74;101851.66;106759;1269;25345;-66
2023/12/10 06:13:49;;;;;;;10.30;8.90;;;;;;;8.38;51.84;101852.52;106861;1257;25341;-67
2023/12/10 06:16:17;;;;;;;10.40;8.90;;;;;;;8.43;51.76;101856.02;106894;1257;25220;-67
2023/12/10 06:18:45;;;;;;;10.20;9.10;;;;;;;8.45;51.73;101856.02;106163;1256;1003110;-65
2023/12/10 06:21:13;;;;;;;12.10;9.50;;;;;;;8.46;51.54;101858.63;106735;1272;22553;-66
2023/12/10 06:23:41;;;;;;;13.10;10.20;;;;;;;8.47;51.55;101859.33;106855;1259;24547;-66
2023/12/10 06:26:08;;;;;;;10.90;9.50;;;;;;;8.52;51.56;101862.97;106839;1259;25294;-66
2023/12/10 06:28:36;;;;;;;11.60;9.70;;;;;;;8.56;51.30;101867.30;106716;1260;22545;-66
2023/12/10 06:31:04;;;;;;;12.30;11.00;;;;;;;8.56;51.26;101868.52;106795;1256;22528;-66
2023/12/10 06:33:32;;;;;;;11.80;9.70;;;;;;;8.60;51.16;101871.31;106084;1254;1003419;-66
2023/12/10 06:36:00;;;;;;;10.70;9.50;;;;;;;8.66;51.26;101875.13;106689;1272;22527;-66
2023/12/10 06:38:28;;;;;;;9.50;8.40;;;;;;;8.68;51.20;101870.80;106738;1260;22660;-66
2023/12/10 06:40:56;;;;;;;11.90;10.00;;;;;;;8.68;51.15;101869.61;106930;1256;22533;-66
2023/12/10 06:43:26;;;;;;;9.70;8.70;;;;;;;8.67;51.01;101868.05;106621;1260;22788;-66
2023/12/10 06:45:58;;;;;;;11.40;9.40;;;;;;;8.69;51.13;101866.48;106092;1256;1003051;-67
2023/12/10 06:48:25;;;;;;;10.70;9.10;;;;;;;8.71;50.94;101861.14;106854;1256;25227;-66
2023/12/10 06:50:54;;;;;;;11.00;9.60;;;;;;;8.69;50.92;101855.95;106852;1259;22529;-66
2023/12/10 06:53:22;;;;;;;11.80;9.30;;;;;;;8.67;50.97;101856.98;106958;1257;22537;-66
2023/12/10 06:55:50;;;;;;;10.50;9.10;;;;;;;8.67;51.11;101855.42;106953;1256;22530;-66
2023/12/10 06:58:18;;;;;;;10.30;9.30;;;;;;;8.68;51.04;101857.85;106738;1256;22538;-66
2023/12/10 07:00:45;;;;;;;11.40;9.50;;;;;;;8.69;50.94;101861.67;106870;1259;22529;-65
2023/12/10 07:03:14;;;;;;;12.10;9.70;;;;;;;8.69;51.00;101863.73;106975;1259;22538;-66
2023/12/10 07:05:42;;;;;;;10.90;9.50;;;;;;;8.69;50.93;101864.24;106928;1256;22550;-66
2023/12/10 07:08:10;;;;;;;11.80;10.20;;;;;;;8.71;51.09;101870.30;106787;1257;22637;-66
2023/12/10 07:10:40;;;;;;;12.70;10.90;;;;;;;8.76;50.94;101870.33;106117;1254;1002856;-66
2023/12/10 07:13:08;;;;;;;11.40;9.70;;;;;;;8.81;50.94;101876.40;106058;1259;1003005;-65
2023/12/10 07:15:36;;;;;;;10.90;9.80;;;;;;;8.88;50.92;101876.61;106802;1269;22541;-66
2023/12/10 07:18:04;;;;;;;12.80;9.90;;;;;;;8.94;50.79;101878.17;106461;1267;22569;-66
2023/12/10 07:20:32;;;;;;;11.10;9.50;;;;;;;8.95;50.69;101875.75;106996;1259;25348;-66
2023/12/10 07:23:00;;;;;;;10.90;9.40;;;;;;;8.95;50.44;101878.52;106843;1256;25351;-66
2023/12/10 07:25:28;;;;;;;11.20;9.20;;;;;;;8.93;50.44;101876.27;106716;1275;22564;-66
2023/12/10 07:27:56;;;;;;;12.00;10.40;;;;;;;8.95;50.54;101878.34;106746;1254;24733;-66
2023/12/10 07:30:24;;;;;;;11.40;10.00;;;;;;;8.96;50.54;101881.98;106734;1262;22561;-66
2023/12/10 07:32:53;;;;;;;12.20;9.40;;;;;;;9.00;50.67;101885.46;106902;1260;22653;-66
2023/12/10 07:35:22;;;;;;;10.80;9.30;;;;;;;9.04;50.38;101880.27;106393;1263;25527;-66
2023/12/10 07:37:50;;;;;;;11.40;9.10;;;;;;;9.07;50.39;101880.61;106805;1259;22533;-66
2023/12/10 07:40:17;;;;;;;11.80;8.90;;;;;;;9.07;50.18;101880.44;106715;1259;22536;-65
2023/12/10 07:42:45;;;;;;;10.80;9.40;;;;;;;9.07;50.11;101883.73;106669;1272;24393;-66
2023/12/10 07:45:13;;;;;;;11.80;10.20;;;;;;;9.07;50.23;101884.27;105892;1257;1003700;-66
2023/12/10 07:47:41;;;;;;;11.20;10.00;;;;;;;9.09;50.25;101885.30;106608;1259;22527;-66
2023/12/10 07:50:09;;;;;;;12.20;9.80;;;;;;;9.09;50.23;101886.17;106740;1256;25390;-66
2023/12/10 07:52:37;;;;;;;12.90;10.80;;;;;;;9.07;50.06;101888.58;106663;1272;22546;-66
2023/12/10 07:55:06;;;;;;;10.20;9.20;;;;;;;9.08;50.16;101887.55;106056;1272;1003610;-66
2023/12/10 07:57:34;;;;;;;10.70;9.50;;;;;;;9.09;50.15;101889.29;106843;1261;24250;-66
2023/12/10 08:00:05;;;;;;;13.70;10.30;;;;;;;9.06;50.18;101889.96;106086;1261;1003468;-66
2023/12/10 08:02:38;;;;;;;11.10;9.60;;;;;;;9.06;50.26;101885.47;106977;1257;22530;-66
2023/12/10 08:05:06;;;;;;;11.80;9.60;;;;;;;9.05;50.12;101883.38;106708;1261;22545;-65
2023/12/10 08:11:00;;;;;;;10.70;8.40;;;;;;;9.16;50.19;101891.21;103646;1301;544802;-67
2023/12/10 08:13:28;;;;;;;13.00;9.30;;;;;;;9.16;50.31;101886.35;105579;1290;22595;-66
2023/12/10 08:15:56;;;;;;;13.00;9.90;;;;;;;9.16;49.90;101885.31;105719;1276;22541;-67
2023/12/10 08:18:24;;;;;;;14.40;11.10;;;;;;;9.14;49.94;101882.02;105901;1282;22624;-66
2023/12/10 08:20:52;;;;;;;12.20;9.90;;;;;;;9.18;50.04;101884.80;105706;1274;25361;-66
2023/12/10 08:23:20;;;;;;;13.10;10.20;;;;;;;9.25;50.03;101895.39;105844;1277;22726;-66
2023/12/10 08:25:47;;;;;;;10.00;8.50;;;;;;;9.32;50.06;101897.98;105880;1271;320640;-66
2023/12/10 08:28:15;;;;;;;11.90;9.30;;;;;;;9.37;49.94;101900.77;106001;1269;22546;-66
2023/12/10 08:30:43;;;;;;;11.20;10.00;;;;;;;9.39;49.79;101902.85;106128;1269;24756;-66
2023/12/10 08:33:11;;;;;;;11.60;9.40;;;;;;;9.40;49.61;101901.45;105979;1273;25234;-66
2023/12/10 08:35:39;;;;;;;12.00;9.40;;;;;;;9.34;49.65;101899.89;105928;1271;25379;-66
2023/12/10 08:38:07;;;;;;;11.20;9.60;;;;;;;9.30;49.63;101906.13;105939;1279;22550;-66
2023/12/10 08:40:35;;;;;;;11.40;9.40;;;;;;;9.31;49.62;101903.89;106057;1280;22546;-66
2023/12/10 08:43:03;;;;;;;11.50;10.30;;;;;;;9.35;49.74;101899.21;106606;1272;22554;-66
2023/12/10 08:45:31;;;;;;;11.90;9.70;;;;;;;9.38;49.81;101897.30;106758;1263;24253;-66
2023/12/10 08:48:01;;;;;;;12.10;9.80;;;;;;;9.42;49.77;101892.64;106877;1264;22530;-66
2023/12/10 08:50:29;;;;;;;12.90;9.70;;;;;;;9.46;49.63;101892.28;106699;1272;22529;-66
2023/12/10 08:52:57;;;;;;;10.30;9.00;;;;;;;9.45;49.57;101892.29;106763;1271;22527;-66
2023/12/10 08:55:25;;;;;;;10.70;9.40;;;;;;;9.46;49.37;101889.17;106666;1268;22538;-66
2023/12/10 08:57:53;;;;;;;10.90;9.20;;;;;;;9.44;49.33;101885.88;106814;1264;25271;-66
2023/12/10 09:00:21;;;;;;;11.80;9.70;;;;;;;9.45;49.56;101889.17;106016;1268;1003770;-66
2023/12/10 09:02:49;;;;;;;12.10;9.60;;;;;;;9.48;49.47;101889.16;106087;1271;1003820;-66
2023/12/10 09:05:19;;;;;;;18.80;10.60;;;;;;;9.52;49.40;101887.79;106869;1266;24239;-66
2023/12/10 09:07:46;;;;;;;16.90;9.90;;;;;;;9.58;49.41;101886.23;106856;1267;24206;-66
2023/12/10 09:10:14;;;;;;;14.80;9.60;;;;;;;9.64;49.56;101890.21;106815;1266;22535;-66
2023/12/10 09:12:43;;;;;;;10.40;8.40;;;;;;;9.67;49.32;101889.02;106851;1272;22591;-66
2023/12/10 09:15:10;;;;;;;11.40;9.20;;;;;;;9.72;49.28;101889.18;106808;1265;22550;-66
2023/12/10 09:17:38;;;;;;;11.10;9.20;;;;;;;9.76;49.20;101887.27;106674;1269;22540;-66
2023/12/10 09:20:07;;;;;;;10.70;9.50;;;;;;;9.80;49.10;101887.80;106873;1262;22634;-66
2023/12/10 09:22:35;;;;;;;10.20;8.10;;;;;;;9.78;48.79;101893.34;106080;1270;1002863;-66
2023/12/10 09:25:04;;;;;;;11.60;9.90;;;;;;;9.76;49.07;101892.30;106832;1260;25333;-66
2023/12/10 09:27:32;;;;;;;19.50;12.80;;;;;;;9.78;49.06;101886.23;106023;1259;1002701;-66
2023/12/10 09:30:00;;;;;;;14.70;10.90;;;;;;;9.81;49.10;101889.35;106898;1264;22533;-66
2023/12/10 09:32:29;;;;;;;15.50;11.40;;;;;;;9.83;49.01;101892.81;106784;1268;24266;-66
2023/12/10 09:34:58;;;;;;;14.60;12.10;;;;;;;9.86;49.06;101893.67;106798;1265;24806;-66
2023/12/10 09:37:27;;;;;;;15.50;12.40;;;;;;;9.88;48.91;101888.13;106786;1260;24570;-66
2023/12/10 09:39:55;;;;;;;18.80;13.10;;;;;;;9.90;48.94;101886.74;106810;1258;22536;-66
2023/12/10 09:42:23;;;;;;;18.60;14.00;;;;;;;9.93;49.07;101887.08;106775;1270;25247;-66
2023/12/10 09:44:51;;;;;;;17.80;13.10;;;;;;;9.97;49.07;101882.73;106756;1254;24229;-66
2023/12/10 09:47:18;;;;;;;15.10;12.10;;;;;;;10.00;49.04;101882.90;106799;1265;24234;-66
2023/12/10 09:49:46;;;;;;;16.70;12.90;;;;;;;10.03;49.00;101884.98;106736;1265;22536;-65
2023/12/10 09:52:15;;;;;;;15.90;12.80;;;;;;;10.06;48.96;101882.21;106862;1261;22575;-66
2023/12/10 09:54:43;;;;;;;16.30;12.40;;;;;;;10.08;49.01;101883.41;106779;1260;22537;-66
2023/12/10 09:57:13;;;;;;;17.40;13.20;;;;;;;10.11;49.02;101885.17;106725;1268;22554;-66
2023/12/10 09:59:41;;;;;;;15.90;12.40;;;;;;;10.13;49.06;101886.57;106775;1254;23873;-66
2023/12/10 10:02:10;;;;;;;16.60;11.20;;;;;;;10.16;48.88;101887.43;106734;1257;22530;-66
2023/12/10 10:04:39;;;;;;;13.00;10.50;;;;;;;10.16;48.83;101896.63;106134;1260;1003655;-66
2023/12/10 10:07:08;;;;;;;12.20;9.60;;;;;;;10.16;48.88;101898.34;106869;1268;22533;-66
2023/12/10 10:09:36;;;;;;;11.70;9.10;;;;;;;10.18;48.83;101894.71;106933;1256;22557;-67
2023/12/10 10:12:06;;;;;;;11.90;9.00;;;;;;;10.18;48.90;101892.63;106839;1255;25303;-66
2023/12/10 10:14:34;;;;;;;11.30;8.80;;;;;;;10.17;48.97;101888.13;106722;1256;25334;-66
2023/12/10 10:17:03;;;;;;;10.20;8.50;;;;;;;10.18;49.04;101891.08;106790;1269;22536;-66
2023/12/10 10:19:30;;;;;;;11.40;8.30;;;;;;;10.17;49.02;101888.13;106978;1267;25344;-66
2023/12/10 10:21:59;;;;;;;9.00;7.60;;;;;;;10.17;49.10;101885.34;106040;1261;1003781;-66
2023/12/10 10:24:27;;;;;;;10.90;8.90;;;;;;;10.17;49.06;101881.70;106792;1266;22541;-66
2023/12/10 10:26:55;;;;;;;11.00;8.20;;;;;;;10.18;49.12;101876.33;106763;1258;24219;-66
2023/12/10 10:29:25;;;;;;;11.50;8.60;;;;;;;10.20;49.20;101876.85;106024;1255;1003358;-66
2023/12/10 10:31:54;;;;;;;10.10;8.50;;;;;;;10.21;49.30;101876.33;106787;1258;22533;-66
2023/12/10 10:34:22;;;;;;;11.70;8.80;;;;;;;10.20;49.10;101877.36;106760;1260;22537;-66
2023/12/10 10:36:51;;;;;;;13.00;9.70;;;;;;;10.20;49.19;101875.11;106729;1254;22589;-67
2023/12/10 10:39:20;;;;;;;11.10;8.40;;;;;;;10.21;49.25;101871.13;106769;1260;23812;-66
2023/12/10 10:41:49;;;;;;;12.10;9.00;;;;;;;10.22;49.24;101874.76;106819;1260;23904;-66
2023/12/10 10:44:17;;;;;;;13.40;10.40;;;;;;;10.20;49.27;101880.14;106848;1260;25308;-66
2023/12/10 10:46:45;;;;;;;11.20;9.00;;;;;;;10.20;49.26;101877.36;106834;1257;25464;-66
2023/12/10 10:49:14;;;;;;;11.20;9.90;;;;;;;10.21;49.34;101878.23;106717;1265;25306;-66
2023/12/10 10:51:42;;;;;;;9.00;8.00;;;;;;;10.22;49.54;101874.59;106784;1256;24923;-66
2023/12/10 10:54:10;;;;;;;12.00;9.40;;;;;;;10.23;49.45;101872.66;106681;1257;22650;-66
2023/12/10 10:56:38;;;;;;;12.80;9.10;;;;;;;10.24;49.52;101877.19;106711;1258;26509;-65
2023/12/10 10:59:32;;;;;;;11.50;9.30;;;;;;;10.24;49.53;101879.60;106011;1266;1003660;-66
2023/12/10 11:02:01;;;;;;;10.10;7.60;;;;;;;10.26;49.45;101879.08;106726;1254;22546;-65
2023/12/10 11:04:36;;;;;;;9.70;7.70;;;;;;;10.26;49.45;101887.77;106946;1260;24680;-65
2023/12/10 11:07:06;;;;;;;9.80;7.70;;;;;;;10.26;49.42;101889.65;106806;1269;22590;-65
2023/12/10 11:09:54;;;;;;;8.70;7.80;;;;;;;10.25;49.31;101886.19;106956;1271;22533;-64
2023/12/10 11:12:42;;;;;;;8.30;7.30;;;;;;;10.15;49.52;101882.40;107028;1261;25277;-65
2023/12/10 11:15:13;;;;;;;15.00;8.70;;;;;;;10.20;49.29;101880.48;106521;1261;22546;-65
2023/12/10 11:17:59;;;;;;;12.40;8.80;;;;;;;10.20;49.23;101882.05;107017;1257;22544;-65
2023/12/10 11:20:43;;;;;;;10.80;9.00;;;;;;;10.18;49.24;101882.39;106842;1257;25376;-64